createdAt,value
2022-10-22T00:02:08.813Z,99.90
2022-10-22T00:05:03.295Z,99.90
2022-10-22T00:07:57.764Z,99.90
2022-10-22T00:10:52.309Z,99.90
2022-10-22T00:16:46.804Z,99.90
2022-10-22T00:19:41.941Z,99.90
2022-10-22T00:22:36.451Z,99.90
2022-10-22T00:25:31.155Z,99.90
2022-10-22T00:28:26.213Z,99.90
2022-10-22T00:31:21.489Z,99.90
2022-10-22T00:34:16.285Z,99.90
2022-10-22T00:37:10.627Z,99.90
2022-10-22T00:40:05.569Z,99.90
2022-10-22T00:42:59.963Z,99.90
2022-10-22T00:45:54.431Z,99.90
2022-10-22T00:48:50.164Z,99.90
2022-10-22T00:51:44.653Z,99.90
2022-10-22T00:54:40.461Z,99.90
2022-10-22T00:57:36.509Z,99.90
2022-10-22T01:00:30.971Z,99.90
2022-10-22T01:03:25.685Z,99.90
2022-10-22T01:06:35.589Z,99.90
2022-10-22T01:09:58.911Z,99.90
2022-10-22T01:13:05.444Z,99.90
2022-10-22T01:16:38.104Z,99.90
2022-10-22T01:19:48.490Z,99.90
2022-10-22T01:23:13.037Z,99.90
2022-10-22T01:26:28.619Z,99.90
2022-10-22T01:29:31.054Z,99.90
2022-10-22T01:32:28.702Z,99.90
2022-10-22T01:35:43.637Z,99.10
2022-10-22T01:38:39.752Z,99.00
2022-10-22T01:41:34.302Z,98.90
2022-10-22T01:47:47.809Z,98.60
2022-10-22T01:51:28.588Z,97.90
2022-10-22T01:54:39.350Z,96.30
2022-10-22T01:58:04.087Z,95.90
2022-10-22T02:01:07.162Z,94.60
2022-10-22T02:04:17.740Z,93.40
2022-10-22T02:07:17.231Z,91.90
2022-10-22T02:10:13.667Z,91.90
2022-10-22T02:13:14.353Z,91.00
2022-10-22T02:16:14.240Z,90.40
2022-10-22T02:19:21.389Z,89.50
2022-10-22T02:22:15.985Z,89.00
2022-10-22T02:25:10.978Z,87.70
2022-10-22T02:28:11.829Z,87.30
2022-10-22T02:31:15.787Z,88.00
2022-10-22T02:34:15.965Z,86.20
2022-10-22T02:37:11.348Z,82.80
2022-10-22T02:40:06.397Z,81.80
2022-10-22T02:43:01.051Z,79.70
2022-10-22T02:45:56.799Z,78.00
2022-10-22T02:48:51.352Z,76.30
2022-10-22T02:51:46.067Z,75.90
2022-10-22T02:54:40.576Z,74.60
2022-10-22T02:57:35.498Z,71.90
2022-10-22T03:00:32.665Z,71.50
2022-10-22T03:03:27.177Z,71.50
2022-10-22T03:06:21.585Z,72.10
2022-10-22T03:09:16.928Z,71.10
2022-10-22T03:12:13.513Z,70.90
2022-10-22T03:15:08.290Z,70.90
2022-10-22T03:18:03.278Z,71.50
2022-10-22T03:21:32.233Z,72.20
2022-10-22T03:24:35.799Z,74.50
2022-10-22T03:27:31.419Z,74.20
2022-10-22T03:30:25.840Z,73.20
2022-10-22T03:33:20.216Z,74.10
2022-10-22T03:36:14.823Z,74.10
2022-10-22T03:39:09.834Z,74.60
2022-10-22T03:42:05.732Z,75.10
2022-10-22T03:45:00.116Z,75.40
2022-10-22T03:47:55.401Z,75.80
2022-10-22T03:50:49.798Z,75.70
2022-10-22T03:53:44.206Z,75.60
2022-10-22T03:56:38.819Z,76.20
2022-10-22T03:59:40.743Z,76.00
2022-10-22T04:02:35.196Z,78.00
2022-10-22T04:05:29.846Z,77.00
2022-10-22T04:08:24.236Z,76.40
2022-10-22T04:11:19.072Z,77.90
2022-10-22T04:14:13.559Z,77.50
2022-10-22T04:17:08.061Z,77.10
2022-10-22T04:20:02.444Z,76.80
2022-10-22T04:22:56.981Z,76.90
2022-10-22T04:25:51.305Z,76.90
2022-10-22T04:28:46.253Z,76.80
2022-10-22T04:31:40.961Z,76.90
2022-10-22T04:34:35.361Z,77.60
2022-10-22T04:37:29.867Z,79.40
2022-10-22T04:40:24.444Z,78.50
2022-10-22T04:43:18.773Z,78.50
2022-10-22T04:46:16.936Z,78.80
2022-10-22T04:49:11.318Z,79.10
2022-10-22T04:52:05.919Z,79.10
2022-10-22T04:55:00.414Z,80.70
2022-10-22T04:57:54.901Z,79.80
2022-10-22T05:00:49.434Z,78.40
2022-10-22T05:03:45.551Z,79.20
2022-10-22T05:06:40.267Z,79.50
2022-10-22T05:09:34.722Z,79.20
2022-10-22T05:12:30.818Z,78.80
2022-10-22T05:15:25.222Z,77.90
2022-10-22T05:18:21.873Z,77.20
2022-10-22T05:21:20.451Z,77.10
2022-10-22T05:24:15.428Z,77.90
2022-10-22T05:27:09.985Z,78.70
2022-10-22T05:30:04.337Z,78.80
2022-10-22T05:32:58.951Z,79.50
2022-10-22T05:35:53.755Z,80.10
2022-10-22T05:38:48.631Z,80.00
2022-10-22T05:41:43.091Z,79.50
2022-10-22T05:44:37.651Z,79.10
2022-10-22T05:47:32.703Z,79.90
2022-10-22T05:50:28.334Z,80.60
2022-10-22T05:53:22.672Z,80.50
2022-10-22T05:56:18.693Z,80.10
2022-10-22T05:59:16.240Z,79.50
2022-10-22T06:02:14.354Z,80.00
2022-10-22T06:05:08.930Z,78.90
2022-10-22T06:08:03.867Z,79.80
2022-10-22T06:10:58.603Z,80.30
2022-10-22T06:13:53.895Z,79.90
2022-10-22T06:16:48.628Z,80.20
2022-10-22T06:19:43.701Z,79.50
2022-10-22T06:22:38.232Z,79.80
2022-10-22T06:25:32.671Z,80.60
2022-10-22T06:28:27.107Z,80.70
2022-10-22T06:31:21.550Z,80.90
2022-10-22T06:34:17.152Z,80.70
2022-10-22T06:37:12.610Z,80.90
2022-10-22T06:40:07.315Z,80.80
2022-10-22T06:43:02.277Z,80.60
2022-10-22T06:46:04.426Z,80.20
2022-10-22T06:49:01.613Z,80.40
2022-10-22T06:51:56.120Z,79.70
2022-10-22T06:54:50.492Z,78.50
2022-10-22T06:57:44.883Z,78.70
2022-10-22T07:00:39.324Z,79.90
2022-10-22T07:03:33.708Z,80.20
2022-10-22T07:06:29.657Z,80.00
2022-10-22T07:09:23.987Z,80.00
2022-10-22T07:12:18.980Z,79.50
2022-10-22T07:15:13.446Z,79.30
2022-10-22T07:18:08.021Z,79.40
2022-10-22T07:21:03.089Z,79.10
2022-10-22T07:23:58.174Z,78.50
2022-10-22T07:26:52.825Z,78.40
2022-10-22T07:29:47.293Z,77.70
2022-10-22T07:32:42.007Z,78.80
2022-10-22T07:35:36.746Z,78.50
2022-10-22T07:38:32.733Z,78.00
2022-10-22T07:41:27.904Z,78.00
2022-10-22T07:44:22.344Z,78.20
2022-10-22T07:47:17.375Z,78.90
2022-10-22T07:50:11.895Z,79.30
2022-10-22T07:53:06.366Z,79.40
2022-10-22T07:56:00.728Z,79.20
2022-10-22T07:58:55.222Z,79.70
2022-10-22T08:01:50.000Z,80.00
2022-10-22T08:04:44.516Z,80.00
2022-10-22T08:07:38.845Z,80.30
2022-10-22T08:10:33.530Z,80.50
2022-10-22T08:13:28.842Z,80.60
2022-10-22T08:16:23.239Z,80.60
2022-10-22T08:19:22.375Z,80.70
2022-10-22T08:22:17.038Z,80.40
2022-10-22T08:25:12.112Z,80.50
2022-10-22T08:28:06.762Z,80.50
2022-10-22T08:31:01.140Z,80.40
2022-10-22T08:33:55.659Z,80.30
2022-10-22T08:36:50.207Z,80.30
2022-10-22T08:39:44.681Z,80.50
2022-10-22T08:42:57.143Z,80.70
2022-10-22T08:46:00.759Z,81.10
2022-10-22T08:49:05.843Z,81.60
2022-10-22T08:52:01.401Z,81.60
2022-10-22T08:55:01.381Z,82.00
2022-10-22T08:58:20.779Z,82.30
2022-10-22T09:01:42.363Z,82.30
2022-10-22T09:04:45.821Z,82.50
2022-10-22T09:07:44.496Z,83.00
2022-10-22T09:10:42.584Z,83.30
2022-10-22T09:13:36.967Z,83.20
2022-10-22T09:16:56.023Z,83.40
2022-10-22T09:20:27.982Z,84.30
2022-10-22T09:23:40.709Z,85.70
2022-10-22T09:26:40.024Z,86.70
2022-10-22T09:29:36.083Z,87.60
2022-10-22T09:32:31.388Z,88.00
2022-10-22T09:35:27.067Z,88.20
2022-10-22T09:38:30.061Z,88.90
2022-10-22T09:41:31.185Z,89.90
2022-10-22T09:44:25.609Z,90.10
2022-10-22T09:48:01.017Z,90.10
2022-10-22T09:51:14.443Z,90.10
2022-10-22T09:54:24.793Z,90.10
2022-10-22T09:57:23.341Z,90.10
2022-10-22T10:00:21.644Z,90.00
2022-10-22T10:03:26.049Z,89.90
2022-10-22T10:06:25.060Z,90.20
2022-10-22T10:09:22.314Z,89.90
2022-10-22T10:12:16.205Z,89.90
2022-10-22T10:15:19.558Z,90.00
2022-10-22T10:18:32.097Z,89.70
2022-10-22T10:21:35.845Z,89.70
2022-10-22T10:24:35.982Z,89.60
2022-10-22T10:27:58.355Z,89.80
2022-10-22T10:30:58.758Z,90.00
2022-10-22T10:34:20.509Z,90.00
2022-10-22T10:37:26.335Z,90.10
2022-10-22T10:40:33.842Z,90.10
2022-10-22T10:43:50.989Z,89.90
2022-10-22T10:47:39.156Z,90.00
2022-10-22T10:50:56.606Z,90.30
2022-10-22T10:53:56.737Z,90.60
2022-10-22T10:57:13.973Z,90.80
2022-10-22T11:00:11.712Z,90.80
2022-10-22T11:03:36.809Z,91.00
2022-10-22T11:06:35.833Z,91.10
2022-10-22T11:09:38.850Z,91.00
2022-10-22T11:12:38.531Z,91.00
2022-10-22T11:15:34.803Z,91.00
2022-10-22T11:18:43.514Z,91.00
2022-10-22T11:22:13.130Z,91.00
2022-10-22T11:25:13.334Z,91.00
2022-10-22T11:28:27.838Z,91.00
2022-10-22T11:31:29.501Z,91.10
2022-10-22T11:34:42.040Z,91.30
2022-10-22T11:37:40.135Z,91.40
2022-10-22T11:40:45.431Z,91.40
2022-10-22T11:44:17.838Z,91.20
2022-10-22T11:47:26.398Z,91.20
2022-10-22T11:50:27.621Z,91.20
2022-10-22T11:53:28.958Z,91.60
2022-10-22T11:56:25.035Z,91.30
2022-10-22T11:59:48.419Z,91.30
2022-10-22T12:02:47.745Z,91.20
2022-10-22T12:05:42.307Z,91.30
2022-10-22T12:08:44.309Z,91.40
2022-10-22T12:11:49.081Z,91.40
2022-10-22T12:15:02.610Z,91.60
2022-10-22T12:18:07.101Z,91.40
2022-10-22T12:21:01.725Z,91.60
2022-10-22T12:23:56.503Z,91.50
2022-10-22T12:26:53.649Z,91.60
2022-10-22T12:29:48.448Z,91.80
2022-10-22T12:32:42.849Z,91.90
2022-10-22T12:35:45.368Z,92.10
2022-10-22T12:38:41.883Z,92.10
2022-10-22T12:41:39.917Z,92.30
2022-10-22T12:44:35.441Z,92.30
2022-10-22T12:47:32.277Z,92.40
2022-10-22T12:50:35.207Z,92.50
2022-10-22T12:53:39.118Z,92.60
2022-10-22T12:56:38.677Z,92.70
2022-10-22T12:59:39.779Z,92.90
2022-10-22T13:02:34.215Z,92.80
2022-10-22T13:05:33.163Z,92.90
2022-10-22T13:08:30.408Z,93.00
2022-10-22T13:11:24.178Z,93.30
2022-10-22T13:14:33.959Z,93.20
2022-10-22T13:17:42.331Z,93.60
2022-10-22T13:20:38.656Z,93.50
2022-10-22T13:23:35.082Z,93.50
2022-10-22T13:26:39.515Z,93.40
2022-10-22T13:29:34.350Z,93.30
2022-10-22T13:32:33.732Z,93.30
2022-10-22T13:35:31.817Z,93.10
2022-10-22T13:38:28.656Z,93.10
2022-10-22T13:41:35.870Z,92.90
2022-10-22T13:44:30.247Z,92.90
2022-10-22T13:47:30.468Z,92.60
2022-10-22T13:50:24.801Z,92.40
2022-10-22T13:53:25.660Z,92.30
2022-10-22T13:56:22.053Z,92.20
2022-10-22T13:59:18.518Z,92.00
2022-10-22T14:02:15.941Z,91.90
2022-10-22T14:05:11.152Z,91.90
2022-10-22T14:08:05.875Z,91.70
2022-10-22T14:11:00.275Z,91.60
2022-10-22T14:13:55.022Z,91.80
2022-10-22T14:16:49.597Z,91.10
2022-10-22T14:19:48.177Z,91.00
2022-10-22T14:22:42.740Z,91.10
2022-10-22T14:25:37.145Z,91.20
2022-10-22T14:28:40.777Z,91.10
2022-10-22T14:31:37.674Z,91.10
2022-10-22T14:34:32.141Z,91.10
2022-10-22T14:37:26.548Z,91.00
2022-10-22T14:40:22.456Z,91.20
2022-10-22T14:43:28.996Z,91.10
2022-10-22T14:46:23.721Z,90.90
2022-10-22T14:49:18.025Z,90.80
2022-10-22T14:52:14.834Z,91.00
2022-10-22T14:55:10.281Z,91.00
2022-10-22T14:58:04.672Z,91.00
2022-10-22T15:00:59.554Z,90.60
2022-10-22T15:03:54.048Z,90.50
2022-10-22T15:06:48.411Z,90.10
2022-10-22T15:09:43.525Z,90.20
2022-10-22T15:12:38.166Z,90.30
2022-10-22T15:15:34.188Z,90.30
2022-10-22T15:18:33.719Z,90.40
2022-10-22T15:21:28.191Z,90.40
2022-10-22T15:24:22.612Z,90.20
2022-10-22T15:27:17.255Z,90.30
2022-10-22T15:30:12.070Z,90.30
2022-10-22T15:33:07.074Z,90.40
2022-10-22T15:36:10.693Z,90.50
2022-10-22T15:39:14.040Z,90.50
2022-10-22T15:42:08.784Z,90.70
2022-10-22T15:45:03.667Z,90.60
2022-10-22T15:47:57.967Z,90.60
2022-10-22T15:50:52.334Z,90.70
2022-10-22T15:53:56.802Z,90.80
2022-10-22T15:56:51.306Z,90.90
2022-10-22T15:59:45.837Z,91.10
2022-10-22T16:02:40.452Z,91.10
2022-10-22T16:05:34.868Z,91.20
2022-10-22T16:08:29.372Z,91.30
2022-10-22T16:11:23.694Z,91.40
2022-10-22T16:14:21.175Z,91.40
2022-10-22T16:17:15.513Z,91.40
2022-10-22T16:20:10.395Z,91.40
2022-10-22T16:23:04.720Z,91.20
2022-10-22T16:25:59.136Z,91.20
2022-10-22T16:28:53.550Z,91.10
2022-10-22T16:31:48.149Z,91.00
2022-10-22T16:34:43.264Z,91.10
2022-10-22T16:37:37.650Z,91.10
2022-10-22T16:40:32.768Z,91.30
2022-10-22T16:43:27.627Z,91.30
2022-10-22T16:46:23.460Z,91.40
2022-10-22T16:49:17.841Z,91.30
2022-10-22T16:52:12.182Z,91.70
2022-10-22T16:55:07.336Z,91.90
2022-10-22T16:58:01.674Z,92.20
2022-10-22T17:00:56.201Z,92.20
2022-10-22T17:03:50.972Z,92.10
2022-10-22T17:06:45.773Z,91.90
2022-10-22T17:09:41.148Z,91.70
2022-10-22T17:12:36.785Z,91.70
2022-10-22T17:15:31.100Z,91.50
2022-10-22T17:18:25.576Z,91.50
2022-10-22T17:21:20.535Z,91.40
2022-10-22T17:24:15.101Z,91.40
2022-10-22T17:27:09.453Z,91.30
2022-10-22T17:30:03.926Z,91.70
2022-10-22T17:33:00.359Z,91.40
2022-10-22T17:35:55.024Z,91.40
2022-10-22T17:38:55.571Z,91.50
2022-10-22T17:41:50.261Z,91.90
2022-10-22T17:44:44.662Z,92.00
2022-10-22T17:47:39.600Z,91.90
2022-10-22T17:50:34.163Z,91.80
2022-10-22T17:53:28.699Z,91.70
2022-10-22T17:56:26.958Z,91.60
2022-10-22T17:59:21.417Z,91.50
2022-10-22T18:02:18.287Z,91.30
2022-10-22T18:05:13.838Z,90.90
2022-10-22T18:08:08.227Z,90.50
2022-10-22T18:11:02.796Z,90.50
2022-10-22T18:13:58.882Z,90.50
2022-10-22T18:16:53.983Z,90.60
2022-10-22T18:19:49.528Z,90.60
2022-10-22T18:22:44.012Z,90.50
2022-10-22T18:25:41.232Z,90.60
2022-10-22T18:28:35.125Z,90.60
2022-10-22T18:31:31.564Z,90.70
2022-10-22T18:34:27.102Z,90.60
2022-10-22T18:37:21.564Z,90.70
2022-10-22T18:40:16.260Z,90.90
2022-10-22T18:43:11.032Z,90.80
2022-10-22T18:46:09.016Z,90.90
2022-10-22T18:49:03.681Z,91.00
2022-10-22T18:51:58.910Z,91.20
2022-10-22T18:54:53.301Z,91.30
2022-10-22T18:57:48.865Z,91.30
2022-10-22T19:00:43.238Z,91.30
2022-10-22T19:03:37.930Z,91.40
2022-10-22T19:06:35.868Z,91.50
2022-10-22T19:09:31.374Z,91.60
2022-10-22T19:12:25.796Z,91.60
2022-10-22T19:15:20.379Z,91.70
2022-10-22T19:18:16.345Z,91.70
2022-10-22T19:21:11.330Z,91.70
2022-10-22T19:24:05.810Z,91.70
2022-10-22T19:27:00.233Z,92.00
2022-10-22T19:29:58.005Z,92.10
2022-10-22T19:32:52.536Z,92.10
2022-10-22T19:35:47.842Z,92.30
2022-10-22T19:38:44.270Z,92.50
2022-10-22T19:41:38.931Z,92.60
2022-10-22T19:44:33.343Z,92.50
2022-10-22T19:47:27.715Z,92.40
2022-10-22T19:50:22.325Z,92.30
2022-10-22T19:53:16.647Z,92.20
2022-10-22T19:56:12.504Z,92.30
2022-10-22T19:59:07.721Z,92.40
2022-10-22T20:02:02.609Z,92.40
2022-10-22T20:04:57.005Z,92.40
2022-10-22T20:07:51.430Z,92.50
2022-10-22T20:10:45.761Z,92.50
2022-10-22T20:16:39.911Z,92.70
2022-10-22T20:19:35.043Z,92.70
2022-10-22T20:22:29.420Z,92.80
2022-10-22T20:25:23.801Z,92.50
2022-10-22T20:28:18.648Z,92.50
2022-10-22T20:31:14.983Z,92.40
2022-10-22T20:34:09.436Z,92.50
2022-10-22T20:37:03.817Z,92.50
2022-10-22T20:39:58.120Z,92.50
2022-10-22T20:42:52.524Z,92.50
2022-10-22T20:45:46.827Z,92.50
2022-10-22T20:48:41.199Z,92.40
2022-10-22T20:51:37.628Z,92.30
2022-10-22T20:54:32.065Z,92.30
2022-10-22T20:57:26.419Z,92.30
2022-10-22T21:00:21.898Z,92.30
2022-10-22T21:03:16.788Z,92.50
2022-10-22T21:06:11.168Z,92.90
2022-10-22T21:09:07.030Z,93.40
2022-10-22T21:12:04.513Z,93.70
2022-10-22T21:14:58.985Z,94.40
2022-10-22T21:17:53.376Z,94.70
2022-10-22T21:20:47.760Z,95.10
2022-10-22T21:23:42.233Z,95.70
2022-10-22T21:26:39.605Z,96.00
2022-10-22T21:29:34.129Z,96.30
2022-10-22T21:32:29.472Z,96.50
2022-10-22T21:35:23.933Z,96.70
2022-10-22T21:38:18.403Z,96.70
2022-10-22T21:41:16.167Z,96.90
2022-10-22T21:44:10.786Z,97.30
2022-10-22T21:47:05.885Z,97.70
2022-10-22T21:50:00.345Z,98.00
2022-10-22T21:52:54.693Z,98.30
2022-10-22T21:55:48.996Z,98.70
2022-10-22T21:58:43.683Z,99.00
2022-10-22T22:01:38.163Z,99.50
2022-10-22T22:04:32.596Z,99.90
2022-10-22T22:07:27.100Z,99.90
2022-10-22T22:10:21.549Z,99.90
2022-10-22T22:13:15.986Z,99.90
2022-10-22T22:16:13.436Z,99.90
2022-10-22T22:19:10.047Z,99.90
2022-10-22T22:22:04.461Z,99.90
2022-10-22T22:24:59.502Z,99.90
2022-10-22T22:27:54.077Z,99.90
2022-10-22T22:30:48.753Z,99.90
2022-10-22T22:33:43.453Z,99.90
2022-10-22T22:36:40.466Z,99.90
2022-10-22T22:39:35.243Z,99.90
2022-10-22T22:42:29.689Z,99.90
2022-10-22T22:45:24.118Z,99.90
2022-10-22T22:48:18.458Z,99.90
2022-10-22T22:51:12.904Z,99.90
2022-10-22T22:54:08.362Z,99.90
2022-10-22T22:57:03.856Z,99.90
2022-10-22T22:59:58.220Z,99.90
2022-10-22T23:02:57.217Z,99.90
2022-10-22T23:05:51.532Z,99.90
2022-10-22T23:08:46.297Z,99.90
2022-10-22T23:11:42.014Z,99.90
2022-10-22T23:14:36.529Z,99.90
2022-10-22T23:17:31.007Z,99.90
2022-10-22T23:20:25.466Z,99.90
2022-10-22T23:23:19.843Z,99.90
2022-10-22T23:26:20.482Z,99.90
2022-10-22T23:29:21.264Z,99.90
2022-10-22T23:32:16.730Z,99.90
2022-10-22T23:35:11.893Z,99.90
2022-10-22T23:38:06.373Z,99.90
2022-10-22T23:41:01.169Z,99.90
2022-10-22T23:43:55.666Z,99.90
2022-10-22T23:46:50.198Z,99.90
2022-10-22T23:49:44.701Z,99.90
2022-10-22T23:52:39.245Z,99.90
2022-10-22T23:55:33.817Z,99.90
2022-10-22T23:58:28.286Z,99.90
